Language: 


Des rapports , des résumés tant et plus, au choix de chacun....


Données Historiques de Météogheer
Journalier Rapport pour Février 17, 2017 Unitée:  Les deux    Impériale   Métrique
Suivant Jour »
Journalier Hebdomadaire Mensuel Annuel Sur mesure
  Max: Min: Moyenne:
Température: 55.6 °F /  13.1 °C 32 °F /  0.0 °C 46.8 °F /  8.2 °C
Point de rosée: 50 °F /  10.0 °C 40.3 °F /  4.6 °C 44.6 °F /  7 °C
Humidité: 98% 0% 92%
Vent: 10.5mph /  16.9km/h - 3.6mph /  5.8km/h
Rafales: 13.2mph /  21.2km/h - -
Vent- - WSW
Pression: 30.4 in /  1028.0 hPa 0 in /  0.0 hPa -
Pluie: 0 in /  0.0 mm    
Historical Graphs
 
 
Données tabulaires pour Février 17, 2017
Heure Température Point de rosée Pression Vent Vent Rafales Humidité Pluie Taux (Horaire) Conditions
00:03 43.3 °F /  6.3 °C 42.4 °F /  5.8 °C 30.3in /  1027.0hPa West 2.9mph /  4.7km/h 4.9mph /  7.9km/h 97% 0in /  0.0mm
00:08 43.2 °F /  6.2 °C 42.3 °F /  5.7 °C 30.3in /  1027.0hPa West 4mph /  6.4km/h 5.6mph /  9.0km/h 97% 0in /  0.0mm
00:13 43.2 °F /  6.2 °C 42.3 °F /  5.7 °C 30.3in /  1027.0hPa WSW 5.4mph /  8.7km/h 5.6mph /  9.0km/h 97% 0in /  0.0mm
00:18 42.8 °F /  6.0 °C 42.1 °F /  5.6 °C 30.3in /  1027.0hPa WSW 4.7mph /  7.6km/h 5.4mph /  8.7km/h 97% 0in /  0.0mm
00:23 42.6 °F /  5.9 °C 41.7 °F /  5.4 °C 30.3in /  1027.0hPa West 4.9mph /  7.9km/h 5.8mph /  9.3km/h 97% 0in /  0.0mm
00:28 42.6 °F /  5.9 °C 41.7 °F /  5.4 °C 30.3in /  1027.0hPa WSW 4.9mph /  7.9km/h 5.8mph /  9.3km/h 97% 0in /  0.0mm
00:33 42.6 °F /  5.9 °C 42.1 °F /  5.6 °C 30.3in /  1027.0hPa WSW 4.3mph /  6.9km/h 6.3mph /  10.1km/h 98% 0in /  0.0mm
00:38 42.6 °F /  5.9 °C 42.1 °F /  5.6 °C 30.3in /  1026.0hPa WSW 4mph /  6.4km/h 6.3mph /  10.1km/h 98% 0in /  0.0mm
00:44 42.4 °F /  5.8 °C 41.9 °F /  5.5 °C 30.3in /  1026.0hPa WSW 5.4mph /  8.7km/h 5.8mph /  9.3km/h 98% 0in /  0.0mm
00:49 42.6 °F /  5.9 °C 42.1 °F /  5.6 °C 30.3in /  1026.0hPa WSW 5.8mph /  9.3km/h 6.5mph /  10.5km/h 98% 0in /  0.0mm
00:54 42.6 °F /  5.9 °C 42.1 °F /  5.6 °C 30.3in /  1027.0hPa West 5.8mph /  9.3km/h 6.5mph /  10.5km/h 98% 0in /  0.0mm
00:59 42.6 °F /  5.9 °C 42.1 °F /  5.6 °C 30.3in /  1027.0hPa WSW 5.4mph /  8.7km/h 6.5mph /  10.5km/h 98% 0in /  0.0mm
01:04 42.4 °F /  5.8 °C 41.9 °F /  5.5 °C 30.3in /  1027.0hPa West 5.4mph /  8.7km/h 6.3mph /  10.1km/h 98% 0in /  0.0mm
01:09 42.4 °F /  5.8 °C 41.9 °F /  5.5 °C 30.3in /  1027.0hPa West 5.6mph /  9.0km/h 6.3mph /  10.1km/h 98% 0in /  0.0mm
01:14 42.6 °F /  5.9 °C 42.1 °F /  5.6 °C 30.3in /  1027.0hPa West 6.5mph /  10.5km/h 6.5mph /  10.5km/h 98% 0in /  0.0mm
01:19 42.6 °F /  5.9 °C 42.1 °F /  5.6 °C 30.3in /  1027.0hPa WSW 5.6mph /  9.0km/h 6.5mph /  10.5km/h 98% 0in /  0.0mm
01:24 42.8 °F /  6.0 °C 42.3 °F /  5.7 °C 30.3in /  1027.0hPa West 6mph /  9.7km/h 6.5mph /  10.5km/h 98% 0in /  0.0mm
01:29 42.8 °F /  6.0 °C 42.3 °F /  5.7 °C 30.3in /  1027.0hPa West 5.8mph /  9.3km/h 6.5mph /  10.5km/h 98% 0in /  0.0mm
01:34 42.8 °F /  6.0 °C 42.3 °F /  5.7 °C 30.3in /  1027.0hPa West 6.3mph /  10.1km/h 6.5mph /  10.5km/h 98% 0in /  0.0mm
01:39 42.8 °F /  6.0 °C 42.3 °F /  5.7 °C 30.3in /  1027.0hPa West 5.8mph /  9.3km/h 6.7mph /  10.8km/h 98% 0in /  0.0mm
01:44 42.8 °F /  6.0 °C 42.3 °F /  5.7 °C 30.3in /  1027.0hPa West 5.8mph /  9.3km/h 6.7mph /  10.8km/h 98% 0in /  0.0mm
01:49 42.8 °F /  6.0 °C 42.3 °F /  5.7 °C 30.3in /  1027.0hPa West 6.3mph /  10.1km/h 6.5mph /  10.5km/h 98% 0in /  0.0mm
01:54 42.8 °F /  6.0 °C 42.3 °F /  5.7 °C 30.3in /  1027.0hPa WSW 6.3mph /  10.1km/h 7.4mph /  11.9km/h 98% 0in /  0.0mm
01:59 42.8 °F /  6.0 °C 42.3 °F /  5.7 °C 30.3in /  1027.0hPa West 6.5mph /  10.5km/h 7.4mph /  11.9km/h 98% 0in /  0.0mm
02:04 43 °F /  6.1 °C 42.4 °F /  5.8 °C 30.3in /  1027.0hPa West 4.9mph /  7.9km/h 6.5mph /  10.5km/h 98% 0in /  0.0mm
02:09 42.8 °F /  6.0 °C 42.3 °F /  5.7 °C 30.3in /  1027.0hPa West 6.5mph /  10.5km/h 6.5mph /  10.5km/h 98% 0in /  0.0mm
02:14 42.8 °F /  6.0 °C 42.3 °F /  5.7 °C 30.3in /  1027.0hPa West 5.6mph /  9.0km/h 6.5mph /  10.5km/h 98% 0in /  0.0mm
02:19 43 °F /  6.1 °C 42.4 °F /  5.8 °C 30.3in /  1027.0hPa West 6mph /  9.7km/h 6.5mph /  10.5km/h 98% 0in /  0.0mm
02:24 43.2 °F /  6.2 °C 42.6 °F /  5.9 °C 30.3in /  1027.0hPa West 5.8mph /  9.3km/h 6.5mph /  10.5km/h 98% 0in /  0.0mm
02:29 43 °F /  6.1 °C 42.4 °F /  5.8 °C 30.3in /  1027.0hPa West 4.9mph /  7.9km/h 7.2mph /  11.6km/h 98% 0in /  0.0mm
02:34 43 °F /  6.1 °C 42.4 °F /  5.8 °C 30.3in /  1027.0hPa WSW 6.7mph /  10.8km/h 7.2mph /  11.6km/h 98% 0in /  0.0mm
02:39 42.8 °F /  6.0 °C 42.3 °F /  5.7 °C 30.3in /  1027.0hPa West 6.3mph /  10.1km/h 7.8mph /  12.6km/h 98% 0in /  0.0mm
02:44 42.8 °F /  6.0 °C 42.3 °F /  5.7 °C 30.3in /  1027.0hPa West 6.3mph /  10.1km/h 7.8mph /  12.6km/h 98% 0in /  0.0mm
02:49 42.8 °F /  6.0 °C 42.3 °F /  5.7 °C 30.3in /  1027.0hPa WSW 5.4mph /  8.7km/h 7.2mph /  11.6km/h 98% 0in /  0.0mm
02:54 42.6 °F /  5.9 °C 42.1 °F /  5.6 °C 30.3in /  1027.0hPa WSW 4.3mph /  6.9km/h 7.2mph /  11.6km/h 98% 0in /  0.0mm
03:00 42.3 °F /  5.7 °C 41.7 °F /  5.4 °C 30.3in /  1027.0hPa West 5.8mph /  9.3km/h 6.5mph /  10.5km/h 98% 0in /  0.0mm
03:06 32 °F /  0.0 °C 41.7 °F /  5.4 °C 0in /  0.0hPa West 5.8mph /  9.3km/h 6.5mph /  10.5km/h 0% 0in /  0.0mm
03:11 42.3 °F /  5.7 °C 41.7 °F /  5.4 °C 30.3in /  1027.0hPa West 5.4mph /  8.7km/h 5.8mph /  9.3km/h 98% 0in /  0.0mm
03:16 42.1 °F /  5.6 °C 41.5 °F /  5.3 °C 30.3in /  1027.0hPa WSW 4.3mph /  6.9km/h 5.8mph /  9.3km/h 98% 0in /  0.0mm
03:21 42.1 °F /  5.6 °C 41.5 °F /  5.3 °C 30.3in /  1027.0hPa West 3.8mph /  6.1km/h 5.4mph /  8.7km/h 98% 0in /  0.0mm
03:26 42.3 °F /  5.7 °C 41.7 °F /  5.4 °C 30.3in /  1027.0hPa West 4.5mph /  7.2km/h 4.9mph /  7.9km/h 98% 0in /  0.0mm
03:31 41.9 °F /  5.5 °C 41.4 °F /  5.2 °C 30.3in /  1027.0hPa WSW 4.3mph /  6.9km/h 4.7mph /  7.6km/h 98% 0in /  0.0mm
03:36 41.5 °F /  5.3 °C 41 °F /  5.0 °C 30.3in /  1027.0hPa WSW 4mph /  6.4km/h 4.5mph /  7.2km/h 98% 0in /  0.0mm
03:41 41.5 °F /  5.3 °C 41 °F /  5.0 °C 30.3in /  1027.0hPa WSW 4mph /  6.4km/h 4.3mph /  6.9km/h 98% 0in /  0.0mm
03:46 41.5 °F /  5.3 °C 41 °F /  5.0 °C 30.3in /  1027.0hPa WSW 4.9mph /  7.9km/h 4.9mph /  7.9km/h 98% 0in /  0.0mm
03:51 41.5 °F /  5.3 °C 41 °F /  5.0 °C 30.3in /  1027.0hPa WSW 5.4mph /  8.7km/h 6.3mph /  10.1km/h 98% 0in /  0.0mm
03:56 42.1 °F /  5.6 °C 41.5 °F /  5.3 °C 30.3in /  1027.0hPa WSW 6mph /  9.7km/h 6.3mph /  10.1km/h 98% 0in /  0.0mm
04:01 42.3 °F /  5.7 °C 41.7 °F /  5.4 °C 30.3in /  1027.0hPa WSW 6mph /  9.7km/h 6.5mph /  10.5km/h 98% 0in /  0.0mm
04:06 42.4 °F /  5.8 °C 41.9 °F /  5.5 °C 30.3in /  1027.0hPa WSW 6.3mph /  10.1km/h 7.4mph /  11.9km/h 98% 0in /  0.0mm
04:11 42.6 °F /  5.9 °C 42.1 °F /  5.6 °C 30.3in /  1027.0hPa WSW 6mph /  9.7km/h 7.4mph /  11.9km/h 98% 0in /  0.0mm
04:16 42.8 °F /  6.0 °C 42.3 °F /  5.7 °C 30.3in /  1027.0hPa WSW 5.4mph /  8.7km/h 7.2mph /  11.6km/h 98% 0in /  0.0mm
04:21 43 °F /  6.1 °C 42.4 °F /  5.8 °C 30.3in /  1027.0hPa West 6.5mph /  10.5km/h 7.4mph /  11.9km/h 98% 0in /  0.0mm
04:26 43.2 °F /  6.2 °C 42.6 °F /  5.9 °C 30.3in /  1026.0hPa WSW 6.7mph /  10.8km/h 7.6mph /  12.2km/h 98% 0in /  0.0mm
04:31 43.3 °F /  6.3 °C 42.8 °F /  6.0 °C 30.3in /  1026.0hPa West 6.3mph /  10.1km/h 7.6mph /  12.2km/h 98% 0in /  0.0mm
04:36 43.5 °F /  6.4 °C 43 °F /  6.1 °C 30.3in /  1026.0hPa WSW 7.6mph /  12.2km/h 8.7mph /  14.0km/h 98% 0in /  0.0mm
04:41 43.5 °F /  6.4 °C 43.2 °F /  6.2 °C 30.3in /  1026.0hPa WSW 3.8mph /  6.1km/h 8.7mph /  14.0km/h 98% 0in /  0.0mm
04:46 43.5 °F /  6.4 °C 43.2 °F /  6.2 °C 30.3in /  1026.0hPa West 5.4mph /  8.7km/h 7.6mph /  12.2km/h 98% 0in /  0.0mm
04:51 43.5 °F /  6.4 °C 43.2 °F /  6.2 °C 30.3in /  1026.0hPa WSW 5.6mph /  9.0km/h 6mph /  9.7km/h 98% 0in /  0.0mm
04:56 43.5 °F /  6.4 °C 43.2 °F /  6.2 °C 30.3in /  1026.0hPa WSW 5.4mph /  8.7km/h 5.8mph /  9.3km/h 98% 0in /  0.0mm
05:02 43.9 °F /  6.6 °C 43.3 °F /  6.3 °C 30.3in /  1026.0hPa WSW 6mph /  9.7km/h 6.3mph /  10.1km/h 98% 0in /  0.0mm
05:07 43.9 °F /  6.6 °C 43.3 °F /  6.3 °C 30.3in /  1026.0hPa WSW 6mph /  9.7km/h 6.3mph /  10.1km/h 98% 0in /  0.0mm
05:12 43.9 °F /  6.6 °C 43.3 °F /  6.3 °C 30.3in /  1026.0hPa WSW 5.4mph /  8.7km/h 6.3mph /  10.1km/h 98% 0in /  0.0mm
05:17 43.9 °F /  6.6 °C 43.3 °F /  6.3 °C 30.3in /  1026.0hPa WSW 3.8mph /  6.1km/h 6.3mph /  10.1km/h 98% 0in /  0.0mm
05:22 44.1 °F /  6.7 °C 43.5 °F /  6.4 °C 30.3in /  1026.0hPa WSW 6mph /  9.7km/h 6.5mph /  10.5km/h 98% 0in /  0.0mm
05:27 44.1 °F /  6.7 °C 43.5 °F /  6.4 °C 30.3in /  1026.0hPa West 4.3mph /  6.9km/h 6.5mph /  10.5km/h 98% 0in /  0.0mm
05:32 44.2 °F /  6.8 °C 43.5 °F /  6.4 °C 30.3in /  1026.0hPa West 5.4mph /  8.7km/h 6mph /  9.7km/h 98% 0in /  0.0mm
05:37 44.2 °F /  6.8 °C 43.9 °F /  6.6 °C 30.3in /  1026.0hPa WSW 4.9mph /  7.9km/h 6mph /  9.7km/h 98% 0in /  0.0mm
05:42 44.2 °F /  6.8 °C 43.9 °F /  6.6 °C 30.3in /  1026.0hPa West 4.9mph /  7.9km/h 6mph /  9.7km/h 98% 0in /  0.0mm
05:47 44.4 °F /  6.9 °C 44.1 °F /  6.7 °C 30.3in /  1026.0hPa West 4mph /  6.4km/h 6mph /  9.7km/h 98% 0in /  0.0mm
05:52 44.4 °F /  6.9 °C 44.1 °F /  6.7 °C 30.3in /  1026.0hPa WSW 3.6mph /  5.8km/h 5.6mph /  9.0km/h 98% 0in /  0.0mm
05:57 44.4 °F /  6.9 °C 44.1 °F /  6.7 °C 30.3in /  1026.0hPa WSW 3.4mph /  5.5km/h 5.6mph /  9.0km/h 98% 0in /  0.0mm
06:02 44.2 °F /  6.8 °C 43.9 °F /  6.6 °C 30.3in /  1026.0hPa WSW 4mph /  6.4km/h 4.7mph /  7.6km/h 98% 0in /  0.0mm
06:07 44.2 °F /  6.8 °C 43.9 °F /  6.6 °C 30.3in /  1026.0hPa WSW 4mph /  6.4km/h 4.9mph /  7.9km/h 98% 0in /  0.0mm
06:12 44.4 °F /  6.9 °C 44.1 °F /  6.7 °C 30.3in /  1026.0hPa WSW 5.4mph /  8.7km/h 5.6mph /  9.0km/h 98% 0in /  0.0mm
06:17 44.4 °F /  6.9 °C 44.1 °F /  6.7 °C 30.3in /  1026.0hPa WSW 5.4mph /  8.7km/h 6mph /  9.7km/h 98% 0in /  0.0mm
06:22 44.4 °F /  6.9 °C 44.1 °F /  6.7 °C 30.3in /  1026.0hPa West 4.9mph /  7.9km/h 6mph /  9.7km/h 98% 0in /  0.0mm
06:27 44.2 °F /  6.8 °C 43.9 °F /  6.6 °C 30.3in /  1026.0hPa WSW 3.6mph /  5.8km/h 5.8mph /  9.3km/h 98% 0in /  0.0mm
06:32 44.2 °F /  6.8 °C 43.9 °F /  6.6 °C 30.3in /  1026.0hPa West 3.4mph /  5.5km/h 5.6mph /  9.0km/h 98% 0in /  0.0mm
06:37 44.2 °F /  6.8 °C 43.5 °F /  6.4 °C 30.3in /  1026.0hPa West 3.6mph /  5.8km/h 4.3mph /  6.9km/h 98% 0in /  0.0mm
06:42 44.1 °F /  6.7 °C 43.5 °F /  6.4 °C 30.3in /  1026.0hPa WSW 3.1mph /  5.0km/h 4mph /  6.4km/h 98% 0in /  0.0mm
06:47 43.5 °F /  6.4 °C 43 °F /  6.1 °C 30.3in /  1026.0hPa WSW 3.1mph /  5.0km/h 4mph /  6.4km/h 98% 0in /  0.0mm
06:52 43 °F /  6.1 °C 42.4 °F /  5.8 °C 30.3in /  1026.0hPa WSW 2.9mph /  4.7km/h 3.6mph /  5.8km/h 98% 0in /  0.0mm
06:57 42.6 °F /  5.9 °C 42.1 °F /  5.6 °C 30.3in /  1026.0hPa WSW 2.9mph /  4.7km/h 3.6mph /  5.8km/h 98% 0in /  0.0mm
07:02 42.3 °F /  5.7 °C 41.7 °F /  5.4 °C 30.3in /  1026.0hPa WSW 2.7mph /  4.3km/h 3.6mph /  5.8km/h 98% 0in /  0.0mm
07:07 42.3 °F /  5.7 °C 41.7 °F /  5.4 °C 30.3in /  1026.0hPa West 3.8mph /  6.1km/h 3.8mph /  6.1km/h 98% 0in /  0.0mm
07:12 42.3 °F /  5.7 °C 41.7 °F /  5.4 °C 30.3in /  1026.0hPa West 3.8mph /  6.1km/h 4.7mph /  7.6km/h 98% 0in /  0.0mm
07:17 42.3 °F /  5.7 °C 41.7 °F /  5.4 °C 30.3in /  1026.0hPa West 3.8mph /  6.1km/h 4.7mph /  7.6km/h 98% 0in /  0.0mm
07:22 42.4 °F /  5.8 °C 41.9 °F /  5.5 °C 30.3in /  1026.0hPa West 3.8mph /  6.1km/h 4.3mph /  6.9km/h 98% 0in /  0.0mm
07:27 42.3 °F /  5.7 °C 41.7 °F /  5.4 °C 30.3in /  1026.0hPa West 4.9mph /  7.9km/h 4.9mph /  7.9km/h 98% 0in /  0.0mm
07:32 42.1 °F /  5.6 °C 41.5 °F /  5.3 °C 30.3in /  1026.0hPa West 3.6mph /  5.8km/h 5.4mph /  8.7km/h 98% 0in /  0.0mm
07:37 41.7 °F /  5.4 °C 41.2 °F /  5.1 °C 30.3in /  1026.0hPa West 3.6mph /  5.8km/h 5.4mph /  8.7km/h 98% 0in /  0.0mm
07:42 41.2 °F /  5.1 °C 40.6 °F /  4.8 °C 30.3in /  1026.0hPa WSW 2.9mph /  4.7km/h 4mph /  6.4km/h 98% 0in /  0.0mm
07:47 41 °F /  5.0 °C 40.5 °F /  4.7 °C 30.3in /  1026.0hPa WSW 3.4mph /  5.5km/h 3.6mph /  5.8km/h 98% 0in /  0.0mm
07:52 40.8 °F /  4.9 °C 40.3 °F /  4.6 °C 30.3in /  1026.0hPa WSW 2.9mph /  4.7km/h 3.6mph /  5.8km/h 98% 0in /  0.0mm
07:57 40.8 °F /  4.9 °C 40.3 °F /  4.6 °C 30.3in /  1026.0hPa WSW 3.1mph /  5.0km/h 3.6mph /  5.8km/h 98% 0in /  0.0mm
08:02 41 °F /  5.0 °C 40.5 °F /  4.7 °C 30.3in /  1026.0hPa West 3.8mph /  6.1km/h 4.3mph /  6.9km/h 98% 0in /  0.0mm
08:07 41.5 °F /  5.3 °C 41 °F /  5.0 °C 30.3in /  1026.0hPa West 4.9mph /  7.9km/h 5.8mph /  9.3km/h 98% 0in /  0.0mm
08:12 41.9 °F /  5.5 °C 41.4 °F /  5.2 °C 30.3in /  1026.0hPa West 4mph /  6.4km/h 5.8mph /  9.3km/h 98% 0in /  0.0mm
08:17 42.1 °F /  5.6 °C 41.5 °F /  5.3 °C 30.3in /  1026.0hPa West 4mph /  6.4km/h 4.9mph /  7.9km/h 98% 0in /  0.0mm
08:22 42.3 °F /  5.7 °C 41.7 °F /  5.4 °C 30.3in /  1027.0hPa West 4mph /  6.4km/h 6mph /  9.7km/h 98% 0in /  0.0mm
08:27 42.1 °F /  5.6 °C 41.5 °F /  5.3 °C 30.3in /  1027.0hPa West 5.4mph /  8.7km/h 6mph /  9.7km/h 98% 0in /  0.0mm
08:32 42.1 °F /  5.6 °C 41.5 °F /  5.3 °C 30.3in /  1027.0hPa West 6.3mph /  10.1km/h 6.3mph /  10.1km/h 98% 0in /  0.0mm
08:37 42.3 °F /  5.7 °C 41.7 °F /  5.4 °C 30.3in /  1027.0hPa West 4.9mph /  7.9km/h 6.3mph /  10.1km/h 98% 0in /  0.0mm
08:42 42.4 °F /  5.8 °C 41.9 °F /  5.5 °C 30.3in /  1027.0hPa West 4mph /  6.4km/h 6.3mph /  10.1km/h 98% 0in /  0.0mm
08:47 43 °F /  6.1 °C 42.4 °F /  5.8 °C 30.3in /  1027.0hPa West 4mph /  6.4km/h 6mph /  9.7km/h 98% 0in /  0.0mm
08:52 43.3 °F /  6.3 °C 42.8 °F /  6.0 °C 30.3in /  1027.0hPa WNW 6.5mph /  10.5km/h 6.5mph /  10.5km/h 98% 0in /  0.0mm
08:57 43.9 °F /  6.6 °C 43.3 °F /  6.3 °C 30.3in /  1027.0hPa WNW 4mph /  6.4km/h 6.5mph /  10.5km/h 98% 0in /  0.0mm
09:02 44.2 °F /  6.8 °C 43.5 °F /  6.4 °C 30.3in /  1027.0hPa West 7.2mph /  11.6km/h 7.2mph /  11.6km/h 98% 0in /  0.0mm
09:07 44.2 °F /  6.8 °C 43.9 °F /  6.6 °C 30.3in /  1027.0hPa West 5.4mph /  8.7km/h 7.4mph /  11.9km/h 98% 0in /  0.0mm
09:12 44.8 °F /  7.1 °C 44.2 °F /  6.8 °C 30.3in /  1027.0hPa West 6mph /  9.7km/h 7.4mph /  11.9km/h 98% 0in /  0.0mm
09:17 45.1 °F /  7.3 °C 44.8 °F /  7.1 °C 30.3in /  1027.0hPa WSW 4.9mph /  7.9km/h 6.5mph /  10.5km/h 98% 0in /  0.0mm
09:22 45.3 °F /  7.4 °C 45 °F /  7.2 °C 30.3in /  1027.0hPa West 6.3mph /  10.1km/h 6.5mph /  10.5km/h 98% 0in /  0.0mm
09:27 45.9 °F /  7.7 °C 45.3 °F /  7.4 °C 30.3in /  1027.0hPa West 6.3mph /  10.1km/h 7.4mph /  11.9km/h 98% 0in /  0.0mm
09:32 46.6 °F /  8.1 °C 45.9 °F /  7.7 °C 30.3in /  1027.0hPa WSW 6.3mph /  10.1km/h 9.2mph /  14.8km/h 98% 0in /  0.0mm
09:37 46.8 °F /  8.2 °C 46.2 °F /  7.9 °C 30.3in /  1026.0hPa WSW 8.5mph /  13.7km/h 9.2mph /  14.8km/h 98% 0in /  0.0mm
09:43 46.9 °F /  8.3 °C 46.6 °F /  8.1 °C 30.3in /  1026.0hPa WSW 5.8mph /  9.3km/h 10.1mph /  16.3km/h 98% 0in /  0.0mm
09:48 47.1 °F /  8.4 °C 46.6 °F /  8.1 °C 30.3in /  1026.0hPa West 8.1mph /  13.0km/h 10.1mph /  16.3km/h 98% 0in /  0.0mm
09:53 47.3 °F /  8.5 °C 46.8 °F /  8.2 °C 30.3in /  1027.0hPa WSW 8.5mph /  13.7km/h 11mph /  17.7km/h 98% 0in /  0.0mm
09:58 47.5 °F /  8.6 °C 46.9 °F /  8.3 °C 30.3in /  1027.0hPa West 10.5mph /  16.9km/h 12.8mph /  20.6km/h 98% 0in /  0.0mm
10:03 47.8 °F /  8.8 °C 47.3 °F /  8.5 °C 30.3in /  1027.0hPa West 9.8mph /  15.8km/h 12.8mph /  20.6km/h 98% 0in /  0.0mm
10:08 48.2 °F /  9.0 °C 47.7 °F /  8.7 °C 30.3in /  1027.0hPa West 8.1mph /  13.0km/h 10.5mph /  16.9km/h 98% 0in /  0.0mm
10:13 48.4 °F /  9.1 °C 47.8 °F /  8.8 °C 30.3in /  1027.0hPa SW 3.6mph /  5.8km/h 10.7mph /  17.2km/h 98% 0in /  0.0mm
10:18 48.9 °F /  9.4 °C 48.4 °F /  9.1 °C 30.3in /  1027.0hPa West 4.3mph /  6.9km/h 10.7mph /  17.2km/h 98% 0in /  0.0mm
10:23 49.3 °F /  9.6 °C 48.7 °F /  9.3 °C 30.3in /  1027.0hPa West 7.6mph /  12.2km/h 10.7mph /  17.2km/h 98% 0in /  0.0mm
10:28 49.6 °F /  9.8 °C 48.7 °F /  9.3 °C 30.3in /  1027.0hPa West 5.4mph /  8.7km/h 10.7mph /  17.2km/h 97% 0in /  0.0mm
10:33 50.2 °F /  10.1 °C 49.5 °F /  9.7 °C 30.3in /  1027.0hPa WNW 5.4mph /  8.7km/h 13.2mph /  21.2km/h 97% 0in /  0.0mm
10:38 50.2 °F /  10.1 °C 49.5 °F /  9.7 °C 30.3in /  1027.0hPa West 8.1mph /  13.0km/h 13.2mph /  21.2km/h 97% 0in /  0.0mm
10:43 50.4 °F /  10.2 °C 49.3 °F /  9.6 °C 30.3in /  1027.0hPa West 5.4mph /  8.7km/h 10.1mph /  16.3km/h 96% 0in /  0.0mm
10:48 50.7 °F /  10.4 °C 49.6 °F /  9.8 °C 30.3in /  1027.0hPa NNW 6.5mph /  10.5km/h 9.8mph /  15.8km/h 96% 0in /  0.0mm
10:53 51.1 °F /  10.6 °C 50 °F /  10.0 °C 30.3in /  1027.0hPa West 10.1mph /  16.3km/h 10.1mph /  16.3km/h 96% 0in /  0.0mm
10:58 51.1 °F /  10.6 °C 50 °F /  10.0 °C 30.3in /  1027.0hPa West 5.6mph /  9.0km/h 10.7mph /  17.2km/h 96% 0in /  0.0mm
11:03 51.1 °F /  10.6 °C 49.6 °F /  9.8 °C 30.3in /  1027.0hPa West 6.5mph /  10.5km/h 10.7mph /  17.2km/h 95% 0in /  0.0mm
11:08 50.9 °F /  10.5 °C 49.3 °F /  9.6 °C 30.3in /  1026.0hPa West 5.8mph /  9.3km/h 10.1mph /  16.3km/h 94% 0in /  0.0mm
11:13 51.1 °F /  10.6 °C 49.5 °F /  9.7 °C 30.3in /  1026.0hPa West 3.4mph /  5.5km/h 8.7mph /  14.0km/h 94% 0in /  0.0mm
11:18 51.3 °F /  10.7 °C 49.3 °F /  9.6 °C 30.3in /  1026.0hPa WNW 7.4mph /  11.9km/h 10.5mph /  16.9km/h 93% 0in /  0.0mm
11:23 51.3 °F /  10.7 °C 48.9 °F /  9.4 °C 30.3in /  1027.0hPa West 2.9mph /  4.7km/h 10.5mph /  16.9km/h 92% 0in /  0.0mm
11:28 51.4 °F /  10.8 °C 49.3 °F /  9.6 °C 30.3in /  1027.0hPa West 6.9mph /  11.1km/h 8.5mph /  13.7km/h 92% 0in /  0.0mm
11:33 51.8 °F /  11.0 °C 49.3 °F /  9.6 °C 30.3in /  1027.0hPa NNW 3.8mph /  6.1km/h 8.7mph /  14.0km/h 91% 0in /  0.0mm
11:38 52 °F /  11.1 °C 49.5 °F /  9.7 °C 30.3in /  1027.0hPa NNE 3.8mph /  6.1km/h 8.7mph /  14.0km/h 91% 0in /  0.0mm
11:43 52.5 °F /  11.4 °C 49.8 °F /  9.9 °C 30.3in /  1027.0hPa WSW 6.9mph /  11.1km/h 6.9mph /  11.1km/h 91% 0in /  0.0mm
11:48 52.5 °F /  11.4 °C 49.5 °F /  9.7 °C 30.3in /  1027.0hPa WSW 2.2mph /  3.5km/h 6.9mph /  11.1km/h 89% 0in /  0.0mm
11:53 52.5 °F /  11.4 °C 48.6 °F /  9.2 °C 30.3in /  1027.0hPa West 6.5mph /  10.5km/h 6.9mph /  11.1km/h 86% 0in /  0.0mm
11:58 52.3 °F /  11.3 °C 47.7 °F /  8.7 °C 30.3in /  1027.0hPa NNW 6.5mph /  10.5km/h 7.8mph /  12.6km/h 84% 0in /  0.0mm
12:03 52.2 °F /  11.2 °C 48 °F /  8.9 °C 30.3in /  1027.0hPa WSW 2.9mph /  4.7km/h 7.8mph /  12.6km/h 86% 0in /  0.0mm
12:08 52.5 °F /  11.4 °C 48.9 °F /  9.4 °C 30.3in /  1027.0hPa WNW 4.9mph /  7.9km/h 6.5mph /  10.5km/h 87% 0in /  0.0mm
12:13 52.2 °F /  11.2 °C 47.7 °F /  8.7 °C 30.3in /  1027.0hPa WNW 6mph /  9.7km/h 7.2mph /  11.6km/h 85% 0in /  0.0mm
12:18 52 °F /  11.1 °C 47.1 °F /  8.4 °C 30.3in /  1027.0hPa WNW 6mph /  9.7km/h 7.2mph /  11.6km/h 84% 0in /  0.0mm
12:23 52 °F /  11.1 °C 47.1 °F /  8.4 °C 30.3in /  1027.0hPa West 4mph /  6.4km/h 7.6mph /  12.2km/h 84% 0in /  0.0mm
12:28 52 °F /  11.1 °C 47.1 °F /  8.4 °C 30.3in /  1027.0hPa NNE 1.6mph /  2.6km/h 7.6mph /  12.2km/h 84% 0in /  0.0mm
12:33 52 °F /  11.1 °C 47.7 °F /  8.7 °C 30.3in /  1027.0hPa North 4.7mph /  7.6km/h 7.6mph /  12.2km/h 85% 0in /  0.0mm
12:38 51.8 °F /  11.0 °C 46.8 °F /  8.2 °C 30.3in /  1026.0hPa NNW 4mph /  6.4km/h 7.6mph /  12.2km/h 83% 0in /  0.0mm
12:43 52.2 °F /  11.2 °C 47.5 °F /  8.6 °C 30.3in /  1026.0hPa West 1.1mph /  1.8km/h 7.6mph /  12.2km/h 84% 0in /  0.0mm
12:48 52 °F /  11.1 °C 47.1 °F /  8.4 °C 30.3in /  1026.0hPa West 3.8mph /  6.1km/h 7.4mph /  11.9km/h 84% 0in /  0.0mm
12:53 52.3 °F /  11.3 °C 47.7 °F /  8.7 °C 30.3in /  1026.0hPa West 5.8mph /  9.3km/h 7.8mph /  12.6km/h 84% 0in /  0.0mm
12:58 52.9 °F /  11.6 °C 47.8 °F /  8.8 °C 30.3in /  1026.0hPa WNW 4.9mph /  7.9km/h 10.1mph /  16.3km/h 83% 0in /  0.0mm
13:03 53.2 °F /  11.8 °C 48.6 °F /  9.2 °C 30.3in /  1026.0hPa NNE 5.6mph /  9.0km/h 10.1mph /  16.3km/h 84% 0in /  0.0mm
13:08 53.2 °F /  11.8 °C 48 °F /  8.9 °C 30.3in /  1026.0hPa SW 3.1mph /  5.0km/h 8.9mph /  14.3km/h 82% 0in /  0.0mm
13:13 53.2 °F /  11.8 °C 47.8 °F /  8.8 °C 30.3in /  1026.0hPa West 6mph /  9.7km/h 8.9mph /  14.3km/h 82% 0in /  0.0mm
13:18 53.2 °F /  11.8 °C 47.5 °F /  8.6 °C 30.3in /  1026.0hPa North 3.8mph /  6.1km/h 6.5mph /  10.5km/h 81% 0in /  0.0mm
13:23 53.2 °F /  11.8 °C 47.5 °F /  8.6 °C 30.3in /  1027.0hPa NNW 2.5mph /  4.0km/h 6.5mph /  10.5km/h 81% 0in /  0.0mm
13:28 52.9 °F /  11.6 °C 46.8 °F /  8.2 °C 30.3in /  1027.0hPa West 6mph /  9.7km/h 6mph /  9.7km/h 80% 0in /  0.0mm
13:33 53.2 °F /  11.8 °C 47.3 °F /  8.5 °C 30.3in /  1027.0hPa NW 6mph /  9.7km/h 6.5mph /  10.5km/h 80% 0in /  0.0mm
13:38 53.2 °F /  11.8 °C 47.3 °F /  8.5 °C 30.3in /  1027.0hPa WNW 6mph /  9.7km/h 8.1mph /  13.0km/h 80% 0in /  0.0mm
13:43 53.4 °F /  11.9 °C 47.5 °F /  8.6 °C 30.3in /  1027.0hPa NW 2mph /  3.2km/h 8.1mph /  13.0km/h 80% 0in /  0.0mm
13:48 54 °F /  12.2 °C 48.2 °F /  9.0 °C 30.3in /  1027.0hPa North 3.1mph /  5.0km/h 6.3mph /  10.1km/h 81% 0in /  0.0mm
13:53 54 °F /  12.2 °C 48.2 °F /  9.0 °C 30.3in /  1027.0hPa WNW 1.6mph /  2.6km/h 6.3mph /  10.1km/h 81% 0in /  0.0mm
13:58 53.4 °F /  11.9 °C 47.1 °F /  8.4 °C 30.3in /  1027.0hPa NNW 3.6mph /  5.8km/h 7.4mph /  11.9km/h 79% 0in /  0.0mm
14:03 53.2 °F /  11.8 °C 47.3 °F /  8.5 °C 30.3in /  1027.0hPa WSW 4.3mph /  6.9km/h 7.4mph /  11.9km/h 80% 0in /  0.0mm
14:08 53.4 °F /  11.9 °C 47.5 °F /  8.6 °C 30.3in /  1027.0hPa West 5.8mph /  9.3km/h 6.5mph /  10.5km/h 80% 0in /  0.0mm
14:13 53.2 °F /  11.8 °C 47.3 °F /  8.5 °C 30.3in /  1027.0hPa NNW 5.6mph /  9.0km/h 7.8mph /  12.6km/h 80% 0in /  0.0mm
14:19 53.2 °F /  11.8 °C 47.1 °F /  8.4 °C 30.3in /  1027.0hPa NNW 4mph /  6.4km/h 7.8mph /  12.6km/h 80% 0in /  0.0mm
14:24 53.2 °F /  11.8 °C 47.1 °F /  8.4 °C 30.3in /  1027.0hPa South 2.5mph /  4.0km/h 6.5mph /  10.5km/h 80% 0in /  0.0mm
14:29 53.2 °F /  11.8 °C 47.1 °F /  8.4 °C 30.3in /  1027.0hPa ENE 4.3mph /  6.9km/h 6mph /  9.7km/h 80% 0in /  0.0mm
14:34 53.1 °F /  11.7 °C 46.9 °F /  8.3 °C 30.3in /  1027.0hPa WNW 3.4mph /  5.5km/h 5.8mph /  9.3km/h 80% 0in /  0.0mm
14:39 53.1 °F /  11.7 °C 46.8 °F /  8.2 °C 30.4in /  1028.0hPa NNE 2.5mph /  4.0km/h 5.8mph /  9.3km/h 79% 0in /  0.0mm
14:44 53.1 °F /  11.7 °C 46.9 °F /  8.3 °C 30.4in /  1028.0hPa WNW 1.1mph /  1.8km/h 5.8mph /  9.3km/h 80% 0in /  0.0mm
14:49 53.2 °F /  11.8 °C 47.1 °F /  8.4 °C 30.4in /  1028.0hPa NW 2.7mph /  4.3km/h 6mph /  9.7km/h 80% 0in /  0.0mm
14:54 53.1 °F /  11.7 °C 46.9 °F /  8.3 °C 30.3in /  1027.0hPa WNW 3.1mph /  5.0km/h 8.5mph /  13.7km/h 80% 0in /  0.0mm
14:59 53.1 °F /  11.7 °C 46.9 °F /  8.3 °C 30.3in /  1027.0hPa NNW 4.3mph /  6.9km/h 8.5mph /  13.7km/h 80% 0in /  0.0mm
15:04 52.5 °F /  11.4 °C 46.2 °F /  7.9 °C 30.3in /  1027.0hPa NNE 2.9mph /  4.7km/h 5.6mph /  9.0km/h 79% 0in /  0.0mm
15:09 52.5 °F /  11.4 °C 46.6 °F /  8.1 °C 30.3in /  1027.0hPa North 2.7mph /  4.3km/h 7.2mph /  11.6km/h 80% 0in /  0.0mm
15:14 54 °F /  12.2 °C 48.2 °F /  9.0 °C 30.3in /  1027.0hPa NNW 2.5mph /  4.0km/h 7.2mph /  11.6km/h 81% 0in /  0.0mm
15:19 54 °F /  12.2 °C 47.7 °F /  8.7 °C 30.3in /  1027.0hPa North 3.4mph /  5.5km/h 8.5mph /  13.7km/h 79% 0in /  0.0mm
15:24 53.4 °F /  11.9 °C 47.1 °F /  8.4 °C 30.3in /  1027.0hPa NNW 2mph /  3.2km/h 8.5mph /  13.7km/h 79% 0in /  0.0mm
15:29 54 °F /  12.2 °C 47.7 °F /  8.7 °C 30.3in /  1027.0hPa WNW 3.4mph /  5.5km/h 6mph /  9.7km/h 79% 0in /  0.0mm
15:39 55.6 °F /  13.1 °C 48 °F /  8.9 °C 30.3in /  1027.0hPa NNW 3.4mph /  5.5km/h 8.1mph /  13.0km/h 76% 0in /  0.0mm
15:44 54.9 °F /  12.7 °C 47.1 °F /  8.4 °C 30.3in /  1027.0hPa West 5.6mph /  9.0km/h 8.1mph /  13.0km/h 75% 0in /  0.0mm
15:49 54 °F /  12.2 °C 45.9 °F /  7.7 °C 30.3in /  1027.0hPa WNW 3.4mph /  5.5km/h 7.6mph /  12.2km/h 74% 0in /  0.0mm
15:54 53.8 °F /  12.1 °C 46 °F /  7.8 °C 30.3in /  1027.0hPa North 4.7mph /  7.6km/h 6.5mph /  10.5km/h 75% 0in /  0.0mm
15:59 53.2 °F /  11.8 °C 46 °F /  7.8 °C 30.3in /  1027.0hPa West 1.3mph /  2.1km/h 4.9mph /  7.9km/h 76% 0in /  0.0mm
16:04 53.2 °F /  11.8 °C 46 °F /  7.8 °C 30.3in /  1027.0hPa NNW 1.6mph /  2.6km/h 4.9mph /  7.9km/h 77% 0in /  0.0mm
16:09 53.1 °F /  11.7 °C 46.2 °F /  7.9 °C 30.3in /  1027.0hPa NNW 3.1mph /  5.0km/h 4.9mph /  7.9km/h 78% 0in /  0.0mm
16:14 52.9 °F /  11.6 °C 46 °F /  7.8 °C 30.3in /  1027.0hPa North 3.6mph /  5.8km/h 5.4mph /  8.7km/h 78% 0in /  0.0mm
16:19 52.3 °F /  11.3 °C 46 °F /  7.8 °C 30.3in /  1027.0hPa North 2.9mph /  4.7km/h 5.8mph /  9.3km/h 79% 0in /  0.0mm
16:24 52.2 °F /  11.2 °C 45.9 °F /  7.7 °C 30.3in /  1027.0hPa NE 3.8mph /  6.1km/h 5.8mph /  9.3km/h 79% 0in /  0.0mm
16:29 52 °F /  11.1 °C 46 °F /  7.8 °C 30.3in /  1027.0hPa North 2.9mph /  4.7km/h 4.9mph /  7.9km/h 80% 0in /  0.0mm
16:34 51.8 °F /  11.0 °C 45.9 °F /  7.7 °C 30.3in /  1027.0hPa Calm   4.9mph /  7.9km/h 80% 0in /  0.0mm
16:39 51.8 °F /  11.0 °C 45.9 °F /  7.7 °C 30.3in /  1027.0hPa North 3.1mph /  5.0km/h 4mph /  6.4km/h 80% 0in /  0.0mm
16:44 51.6 °F /  10.9 °C 45.9 °F /  7.7 °C 30.3in /  1027.0hPa North 2.7mph /  4.3km/h 6mph /  9.7km/h 81% 0in /  0.0mm
16:49 51.3 °F /  10.7 °C 45.7 °F /  7.6 °C 30.3in /  1027.0hPa North 3.8mph /  6.1km/h 6mph /  9.7km/h 81% 0in /  0.0mm
16:54 51.3 °F /  10.7 °C 45.7 °F /  7.6 °C 30.3in /  1027.0hPa NNE 3.8mph /  6.1km/h 5.4mph /  8.7km/h 81% 0in /  0.0mm
16:59 50.9 °F /  10.5 °C 45.7 °F /  7.6 °C 30.3in /  1027.0hPa North 3.1mph /  5.0km/h 5.4mph /  8.7km/h 82% 0in /  0.0mm
17:04 50.7 °F /  10.4 °C 45.3 °F /  7.4 °C 30.3in /  1027.0hPa North 2.5mph /  4.0km/h 4.7mph /  7.6km/h 82% 0in /  0.0mm
17:09 50.5 °F /  10.3 °C 45.1 °F /  7.3 °C 30.3in /  1026.0hPa North 1.6mph /  2.6km/h 4.3mph /  6.9km/h 82% 0in /  0.0mm
17:14 50.4 °F /  10.2 °C 45.3 °F /  7.4 °C 30.3in /  1026.0hPa Calm   4.3mph /  6.9km/h 83% 0in /  0.0mm
17:19 50.2 °F /  10.1 °C 45.1 °F /  7.3 °C 30.3in /  1026.0hPa NNE 3.1mph /  5.0km/h 3.1mph /  5.0km/h 83% 0in /  0.0mm
17:24 50.2 °F /  10.1 °C 45.1 °F /  7.3 °C 30.3in /  1026.0hPa WNW 3.4mph /  5.5km/h 4mph /  6.4km/h 83% 0in /  0.0mm
17:29 50 °F /  10.0 °C 45.3 °F /  7.4 °C 30.3in /  1026.0hPa North 2.2mph /  3.5km/h 4mph /  6.4km/h 84% 0in /  0.0mm
17:35 50 °F /  10.0 °C 45.3 °F /  7.4 °C 30.3in /  1026.0hPa NNW 2mph /  3.2km/h 3.6mph /  5.8km/h 84% 0in /  0.0mm
17:40 49.8 °F /  9.9 °C 45.1 °F /  7.3 °C 30.3in /  1027.0hPa NNW 2.9mph /  4.7km/h 4mph /  6.4km/h 84% 0in /  0.0mm
17:45 49.8 °F /  9.9 °C 45.1 °F /  7.3 °C 30.3in /  1027.0hPa NNE 2mph /  3.2km/h 4mph /  6.4km/h 84% 0in /  0.0mm
17:50 49.6 °F /  9.8 °C 45 °F /  7.2 °C 30.3in /  1027.0hPa NNE 2mph /  3.2km/h 4.3mph /  6.9km/h 84% 0in /  0.0mm
17:55 49.5 °F /  9.7 °C 45.1 °F /  7.3 °C 30.3in /  1027.0hPa North 4.7mph /  7.6km/h 4.7mph /  7.6km/h 85% 0in /  0.0mm
18:00 49.5 °F /  9.7 °C 45.1 °F /  7.3 °C 30.3in /  1027.0hPa NNE 1.3mph /  2.1km/h 4.7mph /  7.6km/h 85% 0in /  0.0mm
18:05 49.3 °F /  9.6 °C 45 °F /  7.2 °C 30.3in /  1027.0hPa North 2.7mph /  4.3km/h 3.6mph /  5.8km/h 85% 0in /  0.0mm
18:10 49.1 °F /  9.5 °C 45.1 °F /  7.3 °C 30.3in /  1027.0hPa North 2.7mph /  4.3km/h 3.6mph /  5.8km/h 86% 0in /  0.0mm
18:15 48.9 °F /  9.4 °C 45 °F /  7.2 °C 30.3in /  1027.0hPa NE 3.4mph /  5.5km/h 3.4mph /  5.5km/h 86% 0in /  0.0mm
18:20 48.7 °F /  9.3 °C 44.8 °F /  7.1 °C 30.3in /  1027.0hPa NE 1.3mph /  2.1km/h 3.4mph /  5.5km/h 86% 0in /  0.0mm
18:25 48.7 °F /  9.3 °C 45.1 °F /  7.3 °C 30.3in /  1027.0hPa NNE 1.3mph /  2.1km/h 3.1mph /  5.0km/h 87% 0in /  0.0mm
18:30 48.6 °F /  9.2 °C 45 °F /  7.2 °C 30.3in /  1027.0hPa NE 2.2mph /  3.5km/h 3.1mph /  5.0km/h 87% 0in /  0.0mm
18:36 48.4 °F /  9.1 °C 45 °F /  7.2 °C 30.3in /  1027.0hPa NE 1.3mph /  2.1km/h 2.5mph /  4.0km/h 88% 0in /  0.0mm
18:41 48.2 °F /  9.0 °C 44.8 °F /  7.1 °C 30.3in /  1027.0hPa NE 1.6mph /  2.6km/h 2.7mph /  4.3km/h 88% 0in /  0.0mm
18:46 48 °F /  8.9 °C 45 °F /  7.2 °C 30.3in /  1027.0hPa NNE 1.3mph /  2.1km/h 2.7mph /  4.3km/h 89% 0in /  0.0mm
18:51 48 °F /  8.9 °C 45 °F /  7.2 °C 30.3in /  1027.0hPa NE 1.3mph /  2.1km/h 2.7mph /  4.3km/h 89% 0in /  0.0mm
18:57 47.8 °F /  8.8 °C 44.8 °F /  7.1 °C 30.3in /  1027.0hPa Calm   2.5mph /  4.0km/h 89% 0in /  0.0mm
19:02 47.8 °F /  8.8 °C 44.8 °F /  7.1 °C 30.3in /  1027.0hPa NNE 0.9mph /  1.4km/h 2.2mph /  3.5km/h 89% 0in /  0.0mm
19:07 47.7 °F /  8.7 °C 45 °F /  7.2 °C 30.3in /  1027.0hPa NNE 1.3mph /  2.1km/h 1.6mph /  2.6km/h 90% 0in /  0.0mm
19:12 47.5 °F /  8.6 °C 44.8 °F /  7.1 °C 30.3in /  1026.0hPa NNE 1.1mph /  1.8km/h 1.6mph /  2.6km/h 90% 0in /  0.0mm
19:17 47.5 °F /  8.6 °C 44.8 °F /  7.1 °C 30.3in /  1026.0hPa Calm   1.3mph /  2.1km/h 90% 0in /  0.0mm
19:22 47.3 °F /  8.5 °C 45 °F /  7.2 °C 30.3in /  1026.0hPa Calm   1.3mph /  2.1km/h 91% 0in /  0.0mm
19:27 47.1 °F /  8.4 °C 44.8 °F /  7.1 °C 30.3in /  1026.0hPa Calm     91% 0in /  0.0mm
19:32 46.9 °F /  8.3 °C 44.4 °F /  6.9 °C 30.3in /  1026.0hPa Calm     91% 0in /  0.0mm
19:37 46.8 °F /  8.2 °C 44.2 °F /  6.8 °C 30.3in /  1026.0hPa NNE 1.6mph /  2.6km/h 2.2mph /  3.5km/h 91% 0in /  0.0mm
19:42 46.8 °F /  8.2 °C 44.2 °F /  6.8 °C 30.3in /  1026.0hPa NNE 1.6mph /  2.6km/h 2.5mph /  4.0km/h 91% 0in /  0.0mm
19:47 46.8 °F /  8.2 °C 44.6 °F /  7.0 °C 30.3in /  1026.0hPa Calm   2.5mph /  4.0km/h 92% 0in /  0.0mm
19:52 46.8 °F /  8.2 °C 44.6 °F /  7.0 °C 30.3in /  1027.0hPa NNW 1.1mph /  1.8km/h 2.7mph /  4.3km/h 92% 0in /  0.0mm
19:57 46.8 °F /  8.2 °C 44.6 °F /  7.0 °C 30.3in /  1027.0hPa WNW 1.6mph /  2.6km/h 2.7mph /  4.3km/h 92% 0in /  0.0mm
20:02 46.8 °F /  8.2 °C 45 °F /  7.2 °C 30.3in /  1027.0hPa Calm   1.6mph /  2.6km/h 93% 0in /  0.0mm
20:07 46.8 °F /  8.2 °C 45 °F /  7.2 °C 30.3in /  1026.0hPa Calm   1.1mph /  1.8km/h 93% 0in /  0.0mm
20:12 46.6 °F /  8.1 °C 44.8 °F /  7.1 °C 30.3in /  1026.0hPa Calm     93% 0in /  0.0mm
20:17 46.6 °F /  8.1 °C 44.8 °F /  7.1 °C 30.3in /  1026.0hPa NE 0.9mph /  1.4km/h 2.9mph /  4.7km/h 93% 0in /  0.0mm
20:22 46.6 °F /  8.1 °C 44.8 °F /  7.1 °C 30.3in /  1027.0hPa WNW 1.6mph /  2.6km/h 2.9mph /  4.7km/h 93% 0in /  0.0mm
20:27 46.6 °F /  8.1 °C 44.6 °F /  7.0 °C 30.3in /  1027.0hPa WNW 1.6mph /  2.6km/h 2.2mph /  3.5km/h 93% 0in /  0.0mm
20:32 46.6 °F /  8.1 °C 44.6 °F /  7.0 °C 30.3in /  1027.0hPa Calm   2.2mph /  3.5km/h 93% 0in /  0.0mm
20:37 46.6 °F /  8.1 °C 44.6 °F /  7.0 °C 30.3in /  1027.0hPa Calm   2mph /  3.2km/h 93% 0in /  0.0mm
20:42 46.2 °F /  7.9 °C 44.4 °F /  6.9 °C 30.3in /  1027.0hPa Calm     93% 0in /  0.0mm
20:47 46.2 °F /  7.9 °C 44.8 °F /  7.1 °C 30.3in /  1027.0hPa Calm     94% 0in /  0.0mm
20:52 46.2 °F /  7.9 °C 44.8 °F /  7.1 °C 30.3in /  1027.0hPa Calm     94% 0in /  0.0mm
20:57 46 °F /  7.8 °C 44.4 °F /  6.9 °C 30.3in /  1027.0hPa Calm     94% 0in /  0.0mm
21:02 46 °F /  7.8 °C 44.4 °F /  6.9 °C 30.3in /  1027.0hPa Calm     94% 0in /  0.0mm
21:07 45.9 °F /  7.7 °C 44.2 °F /  6.8 °C 30.3in /  1027.0hPa Calm     94% 0in /  0.0mm
21:12 45.9 °F /  7.7 °C 44.2 °F /  6.8 °C 30.3in /  1027.0hPa Calm     94% 0in /  0.0mm
21:17 45.9 °F /  7.7 °C 44.6 °F /  7.0 °C 30.3in /  1027.0hPa Calm     95% 0in /  0.0mm
21:22 45.9 °F /  7.7 °C 44.4 °F /  6.9 °C 30.3in /  1027.0hPa Calm     95% 0in /  0.0mm
21:28 45.9 °F /  7.7 °C 44.4 °F /  6.9 °C 30.3in /  1027.0hPa ENE 1.3mph /  2.1km/h 2mph /  3.2km/h 95% 0in /  0.0mm
21:33 45.9 °F /  7.7 °C 44.4 °F /  6.9 °C 30.3in /  1027.0hPa Calm   2mph /  3.2km/h 95% 0in /  0.0mm
21:38 45.9 °F /  7.7 °C 44.4 °F /  6.9 °C 30.3in /  1027.0hPa Calm   1.6mph /  2.6km/h 95% 0in /  0.0mm
21:43 45.9 °F /  7.7 °C 44.4 °F /  6.9 °C 30.3in /  1027.0hPa Calm     95% 0in /  0.0mm
21:48 45.9 °F /  7.7 °C 44.4 °F /  6.9 °C 30.3in /  1027.0hPa Calm     95% 0in /  0.0mm
21:53 45.9 °F /  7.7 °C 44.8 °F /  7.1 °C 30.3in /  1027.0hPa Calm     96% 0in /  0.0mm
21:58 45.7 °F /  7.6 °C 44.4 °F /  6.9 °C 30.3in /  1027.0hPa Calm     96% 0in /  0.0mm
22:03 45.7 °F /  7.6 °C 44.4 °F /  6.9 °C 30.3in /  1027.0hPa Calm     96% 0in /  0.0mm
22:08 45.7 °F /  7.6 °C 44.4 °F /  6.9 °C 30.3in /  1027.0hPa Calm     96% 0in /  0.0mm
22:13 45.7 °F /  7.6 °C 44.4 °F /  6.9 °C 30.3in /  1027.0hPa Calm     96% 0in /  0.0mm
22:18 45.3 °F /  7.4 °C 44.2 °F /  6.8 °C 30.3in /  1027.0hPa Calm     96% 0in /  0.0mm
22:23 45.3 °F /  7.4 °C 44.2 °F /  6.8 °C 30.3in /  1027.0hPa Calm   1.6mph /  2.6km/h 96% 0in /  0.0mm
22:28 45.1 °F /  7.3 °C 44.2 °F /  6.8 °C 30.3in /  1027.0hPa Calm   1.6mph /  2.6km/h 96% 0in /  0.0mm
22:33 45.1 °F /  7.3 °C 44.1 °F /  6.7 °C 30.3in /  1027.0hPa Calm     96% 0in /  0.0mm
22:38 45.1 °F /  7.3 °C 44.1 °F /  6.7 °C 30.3in /  1027.0hPa Calm     96% 0in /  0.0mm
22:43 45 °F /  7.2 °C 43.9 °F /  6.6 °C 30.3in /  1027.0hPa Calm     96% 0in /  0.0mm
22:48 44.4 °F /  6.9 °C 43.5 °F /  6.4 °C 30.3in /  1027.0hPa Calm     96% 0in /  0.0mm
22:53 44.2 °F /  6.8 °C 43.3 °F /  6.3 °C 30.3in /  1027.0hPa Calm     96% 0in /  0.0mm
22:58 44.2 °F /  6.8 °C 43.2 °F /  6.2 °C 30.3in /  1027.0hPa Calm   1.1mph /  1.8km/h 96% 0in /  0.0mm
23:03 44.1 °F /  6.7 °C 43 °F /  6.1 °C 30.3in /  1027.0hPa Calm   1.1mph /  1.8km/h 96% 0in /  0.0mm
23:08 43.9 °F /  6.6 °C 42.8 °F /  6.0 °C 30.3in /  1026.0hPa Calm     96% 0in /  0.0mm
23:13 43.5 °F /  6.4 °C 42.4 °F /  5.8 °C 30.3in /  1026.0hPa South 2mph /  3.2km/h 2mph /  3.2km/h 96% 0in /  0.0mm
23:18 43.3 °F /  6.3 °C 42.3 °F /  5.7 °C 30.3in /  1026.0hPa South 0.9mph /  1.4km/h 2mph /  3.2km/h 96% 0in /  0.0mm
23:23 43.3 °F /  6.3 °C 42.3 °F /  5.7 °C 30.3in /  1027.0hPa South 1.3mph /  2.1km/h 2mph /  3.2km/h 96% 0in /  0.0mm
23:28 43 °F /  6.1 °C 41.9 °F /  5.5 °C 30.3in /  1027.0hPa South 1.1mph /  1.8km/h 2.2mph /  3.5km/h 96% 0in /  0.0mm
23:33 42.8 °F /  6.0 °C 41.7 °F /  5.4 °C 30.3in /  1027.0hPa South 2.2mph /  3.5km/h 2.2mph /  3.5km/h 96% 0in /  0.0mm
23:38 43 °F /  6.1 °C 41.9 °F /  5.5 °C 30.3in /  1027.0hPa WSW 2.7mph /  4.3km/h 2.7mph /  4.3km/h 96% 0in /  0.0mm
23:43 43.3 °F /  6.3 °C 42.4 °F /  5.8 °C 30.3in /  1027.0hPa Calm   3.1mph /  5.0km/h 97% 0in /  0.0mm
23:44 43.3 °F /  6.3 °C 42.4 °F /  5.8 °C 30.3in /  1027.0hPa Calm   3.1mph /  5.0km/h 97% 0in /  0.0mm
23:49 43.2 °F /  6.2 °C 42.3 °F /  5.7 °C 30.3in /  1027.0hPa Calm   3.1mph /  5.0km/h 97% 0in /  0.0mm
23:54 43 °F /  6.1 °C 42.1 °F /  5.6 °C 30.3in /  1027.0hPa Calm   1.6mph /  2.6km/h 97% 0in /  0.0mm
23:59 42.8 °F /  6.0 °C 42.1 °F /  5.6 °C 30.3in /  1027.0hPa Calm   1.6mph /  2.6km/h 97% 0in /  0.0mm
Données Historique de Météo Turbie

Mise a jour : 20/05/2018 15:56:12
Généré par Cumulus 1.9.4 (1099)